sensor_id;sensor_type;location;lat;lon;timestamp;pressure;altitude;pressure_sealevel;temperature
73937;BMP180;59249;59.736;30.568;2023-02-28T00:01:36;100734.00;;;0.60
73937;BMP180;59249;59.736;30.568;2023-02-28T00:04:04;100734.00;;;0.70
73937;BMP180;59249;59.736;30.568;2023-02-28T00:06:36;100714.00;;;0.70
73937;BMP180;59249;59.736;30.568;2023-02-28T00:09:05;100719.00;;;0.70
73937;BMP180;59249;59.736;30.568;2023-02-28T00:11:33;100686.00;;;0.80
73937;BMP180;59249;59.736;30.568;2023-02-28T00:14:03;100689.00;;;0.80
73937;BMP180;59249;59.736;30.568;2023-02-28T00:16:32;100705.00;;;0.90
73937;BMP180;59249;59.736;30.568;2023-02-28T00:19:01;100686.00;;;0.90
73937;BMP180;59249;59.736;30.568;2023-02-28T00:21:30;100668.00;;;0.90
73937;BMP180;59249;59.736;30.568;2023-02-28T00:23:59;100698.00;;;0.90
73937;BMP180;59249;59.736;30.568;2023-02-28T00:26:27;100665.00;;;1.00
73937;BMP180;59249;59.736;30.568;2023-02-28T00:28:56;100633.00;;;1.00
73937;BMP180;59249;59.736;30.568;2023-02-28T00:31:26;100682.00;;;1.10
73937;BMP180;59249;59.736;30.568;2023-02-28T00:33:55;100678.00;;;1.10
73937;BMP180;59249;59.736;30.568;2023-02-28T00:36:25;100658.00;;;1.10
73937;BMP180;59249;59.736;30.568;2023-02-28T00:38:53;100663.00;;;1.20
73937;BMP180;59249;59.736;30.568;2023-02-28T00:41:22;100666.00;;;1.20
73937;BMP180;59249;59.736;30.568;2023-02-28T00:43:51;100646.00;;;1.30
73937;BMP180;59249;59.736;30.568;2023-02-28T00:46:19;100655.00;;;1.30
73937;BMP180;59249;59.736;30.568;2023-02-28T00:48:51;100667.00;;;1.30
73937;BMP180;59249;59.736;30.568;2023-02-28T00:51:20;100651.00;;;1.40
73937;BMP180;59249;59.736;30.568;2023-02-28T00:53:48;100653.00;;;1.40
73937;BMP180;59249;59.736;30.568;2023-02-28T00:56:17;100644.00;;;1.40
73937;BMP180;59249;59.736;30.568;2023-02-28T00:58:46;100643.00;;;1.40
73937;BMP180;59249;59.736;30.568;2023-02-28T01:01:15;100646.00;;;1.50
73937;BMP180;59249;59.736;30.568;2023-02-28T01:03:44;100632.00;;;1.60
73937;BMP180;59249;59.736;30.568;2023-02-28T01:06:14;100618.00;;;1.60
73937;BMP180;59249;59.736;30.568;2023-02-28T01:08:43;100625.00;;;1.70
73937;BMP180;59249;59.736;30.568;2023-02-28T01:11:15;100634.00;;;1.70
73937;BMP180;59249;59.736;30.568;2023-02-28T01:13:45;100630.00;;;1.80
73937;BMP180;59249;59.736;30.568;2023-02-28T01:16:14;100623.00;;;1.80
73937;BMP180;59249;59.736;30.568;2023-02-28T01:18:45;100619.00;;;1.80
73937;BMP180;59249;59.736;30.568;2023-02-28T01:21:16;100610.00;;;1.90
73937;BMP180;59249;59.736;30.568;2023-02-28T01:23:47;100609.00;;;2.00
73937;BMP180;59249;59.736;30.568;2023-02-28T01:26:19;100581.00;;;2.00
73937;BMP180;59249;59.736;30.568;2023-02-28T01:28:48;100582.00;;;2.10
73937;BMP180;59249;59.736;30.568;2023-02-28T01:31:19;100591.00;;;2.30
73937;BMP180;59249;59.736;30.568;2023-02-28T01:33:49;100598.00;;;2.30
73937;BMP180;59249;59.736;30.568;2023-02-28T01:36:21;100589.00;;;2.30
73937;BMP180;59249;59.736;30.568;2023-02-28T01:38:52;100587.00;;;2.20
73937;BMP180;59249;59.736;30.568;2023-02-28T01:41:22;100581.00;;;2.30
73937;BMP180;59249;59.736;30.568;2023-02-28T01:44:00;100560.00;;;2.50
73937;BMP180;59249;59.736;30.568;2023-02-28T01:46:33;100587.00;;;2.40
73937;BMP180;59249;59.736;30.568;2023-02-28T01:49:07;100527.00;;;2.40
73937;BMP180;59249;59.736;30.568;2023-02-28T01:51:42;100566.00;;;2.40
73937;BMP180;59249;59.736;30.568;2023-02-28T01:54:20;100569.00;;;2.50
73937;BMP180;59249;59.736;30.568;2023-02-28T01:56:54;100561.00;;;2.50
73937;BMP180;59249;59.736;30.568;2023-02-28T01:59:29;100554.00;;;2.40
73937;BMP180;59249;59.736;30.568;2023-02-28T02:02:01;100560.00;;;2.50
73937;BMP180;59249;59.736;30.568;2023-02-28T02:04:37;100517.00;;;2.50
73937;BMP180;59249;59.736;30.568;2023-02-28T02:07:13;100556.00;;;2.50
73937;BMP180;59249;59.736;30.568;2023-02-28T02:09:44;100538.00;;;2.50
73937;BMP180;59249;59.736;30.568;2023-02-28T02:12:23;100532.00;;;2.60
73937;BMP180;59249;59.736;30.568;2023-02-28T02:15:05;100549.00;;;2.60
73937;BMP180;59249;59.736;30.568;2023-02-28T02:17:45;100548.00;;;2.70
73937;BMP180;59249;59.736;30.568;2023-02-28T02:24:06;100559.00;;;2.70
73937;BMP180;59249;59.736;30.568;2023-02-28T02:30:33;100508.00;;;2.90
73937;BMP180;59249;59.736;30.568;2023-02-28T02:36:33;100527.00;;;2.90
73937;BMP180;59249;59.736;30.568;2023-02-28T02:39:08;100536.00;;;2.90
73937;BMP180;59249;59.736;30.568;2023-02-28T02:41:48;100531.00;;;2.90
73937;BMP180;59249;59.736;30.568;2023-02-28T02:44:22;100527.00;;;3.00
73937;BMP180;59249;59.736;30.568;2023-02-28T02:46:59;100530.00;;;2.90
73937;BMP180;59249;59.736;30.568;2023-02-28T02:49:36;100525.00;;;2.90
73937;BMP180;59249;59.736;30.568;2023-02-28T02:52:12;100519.00;;;2.90
73937;BMP180;59249;59.736;30.568;2023-02-28T02:54:49;100529.00;;;3.00
73937;BMP180;59249;59.736;30.568;2023-02-28T02:57:24;100542.00;;;2.90
73937;BMP180;59249;59.736;30.568;2023-02-28T02:59:59;100510.00;;;2.90
73937;BMP180;59249;59.736;30.568;2023-02-28T03:02:32;100496.00;;;3.00
73937;BMP180;59249;59.736;30.568;2023-02-28T03:05:05;100476.00;;;3.00
73937;BMP180;59249;59.736;30.568;2023-02-28T03:07:41;100527.00;;;2.90
73937;BMP180;59249;59.736;30.568;2023-02-28T03:10:30;100497.00;;;3.00
73937;BMP180;59249;59.736;30.568;2023-02-28T03:13:11;100477.00;;;3.00
73937;BMP180;59249;59.736;30.568;2023-02-28T03:16:01;100470.00;;;3.00
73937;BMP180;59249;59.736;30.568;2023-02-28T03:18:49;100495.00;;;2.90
73937;BMP180;59249;59.736;30.568;2023-02-28T03:21:32;100444.00;;;2.90
73937;BMP180;59249;59.736;30.568;2023-02-28T03:24:10;100474.00;;;2.90
73937;BMP180;59249;59.736;30.568;2023-02-28T03:26:51;100468.00;;;2.90
73937;BMP180;59249;59.736;30.568;2023-02-28T03:29:28;100470.00;;;2.90
73937;BMP180;59249;59.736;30.568;2023-02-28T03:32:07;100477.00;;;2.90
73937;BMP180;59249;59.736;30.568;2023-02-28T03:34:46;100472.00;;;2.90
73937;BMP180;59249;59.736;30.568;2023-02-28T03:37:21;100475.00;;;2.90
73937;BMP180;59249;59.736;30.568;2023-02-28T03:39:58;100487.00;;;3.00
73937;BMP180;59249;59.736;30.568;2023-02-28T03:42:31;100484.00;;;3.00
73937;BMP180;59249;59.736;30.568;2023-02-28T03:45:05;100452.00;;;3.00
73937;BMP180;59249;59.736;30.568;2023-02-28T03:47:42;100464.00;;;2.90
73937;BMP180;59249;59.736;30.568;2023-02-28T03:52:50;100433.00;;;2.90
73937;BMP180;59249;59.736;30.568;2023-02-28T03:55:34;100451.00;;;2.90
73937;BMP180;59249;59.736;30.568;2023-02-28T03:58:14;100457.00;;;2.90
73937;BMP180;59249;59.736;30.568;2023-02-28T04:00:52;100470.00;;;2.80
73937;BMP180;59249;59.736;30.568;2023-02-28T04:03:27;100477.00;;;2.80
73937;BMP180;59249;59.736;30.568;2023-02-28T04:05:57;100474.00;;;2.80
73937;BMP180;59249;59.736;30.568;2023-02-28T04:08:26;100478.00;;;2.80
73937;BMP180;59249;59.736;30.568;2023-02-28T04:11:00;100474.00;;;2.90
73937;BMP180;59249;59.736;30.568;2023-02-28T04:13:33;100466.00;;;2.90
73937;BMP180;59249;59.736;30.568;2023-02-28T04:16:01;100477.00;;;2.90
73937;BMP180;59249;59.736;30.568;2023-02-28T04:18:47;100472.00;;;2.80
73937;BMP180;59249;59.736;30.568;2023-02-28T04:21:16;100490.00;;;2.80
73937;BMP180;59249;59.736;30.568;2023-02-28T04:23:47;100498.00;;;2.80
73937;BMP180;59249;59.736;30.568;2023-02-28T04:26:17;100466.00;;;2.70
73937;BMP180;59249;59.736;30.568;2023-02-28T04:28:46;100480.00;;;2.70
73937;BMP180;59249;59.736;30.568;2023-02-28T04:31:15;100485.00;;;2.70
73937;BMP180;59249;59.736;30.568;2023-02-28T04:33:43;100484.00;;;2.70
73937;BMP180;59249;59.736;30.568;2023-02-28T04:36:13;100476.00;;;2.70
73937;BMP180;59249;59.736;30.568;2023-02-28T04:38:45;100487.00;;;2.70
73937;BMP180;59249;59.736;30.568;2023-02-28T04:41:14;100474.00;;;2.70
73937;BMP180;59249;59.736;30.568;2023-02-28T04:43:45;100467.00;;;2.70
73937;BMP180;59249;59.736;30.568;2023-02-28T04:46:13;100476.00;;;2.70
73937;BMP180;59249;59.736;30.568;2023-02-28T04:48:42;100469.00;;;2.80
73937;BMP180;59249;59.736;30.568;2023-02-28T04:51:13;100476.00;;;2.70
73937;BMP180;59249;59.736;30.568;2023-02-28T04:53:43;100456.00;;;2.70
73937;BMP180;59249;59.736;30.568;2023-02-28T04:56:13;100475.00;;;2.70
73937;BMP180;59249;59.736;30.568;2023-02-28T04:58:45;100468.00;;;2.70
73937;BMP180;59249;59.736;30.568;2023-02-28T05:01:18;100486.00;;;2.70
73937;BMP180;59249;59.736;30.568;2023-02-28T05:03:49;100402.00;;;2.60
73937;BMP180;59249;59.736;30.568;2023-02-28T05:06:21;100441.00;;;2.70
73937;BMP180;59249;59.736;30.568;2023-02-28T05:08:52;100461.00;;;2.70
73937;BMP180;59249;59.736;30.568;2023-02-28T05:11:23;100463.00;;;2.60
73937;BMP180;59249;59.736;30.568;2023-02-28T05:13:55;100447.00;;;2.70
73937;BMP180;59249;59.736;30.568;2023-02-28T05:16:24;100433.00;;;2.70
73937;BMP180;59249;59.736;30.568;2023-02-28T05:18:52;100446.00;;;2.80
73937;BMP180;59249;59.736;30.568;2023-02-28T05:21:25;100434.00;;;2.70
73937;BMP180;59249;59.736;30.568;2023-02-28T05:23:59;100444.00;;;2.70
73937;BMP180;59249;59.736;30.568;2023-02-28T05:26:29;100464.00;;;2.70
73937;BMP180;59249;59.736;30.568;2023-02-28T05:29:00;100478.00;;;2.80
73937;BMP180;59249;59.736;30.568;2023-02-28T05:31:29;100484.00;;;2.80
73937;BMP180;59249;59.736;30.568;2023-02-28T05:33:58;100475.00;;;2.80
73937;BMP180;59249;59.736;30.568;2023-02-28T05:36:27;100476.00;;;2.80
73937;BMP180;59249;59.736;30.568;2023-02-28T05:38:56;100463.00;;;2.80
73937;BMP180;59249;59.736;30.568;2023-02-28T05:41:24;100465.00;;;2.80
73937;BMP180;59249;59.736;30.568;2023-02-28T05:43:54;100470.00;;;2.80
73937;BMP180;59249;59.736;30.568;2023-02-28T05:46:24;100477.00;;;2.80
73937;BMP180;59249;59.736;30.568;2023-02-28T05:48:53;100474.00;;;2.90
73937;BMP180;59249;59.736;30.568;2023-02-28T05:51:22;100514.00;;;2.90
73937;BMP180;59249;59.736;30.568;2023-02-28T05:53:51;100484.00;;;2.90
73937;BMP180;59249;59.736;30.568;2023-02-28T05:56:20;100477.00;;;2.80
73937;BMP180;59249;59.736;30.568;2023-02-28T05:58:49;100455.00;;;2.90
73937;BMP180;59249;59.736;30.568;2023-02-28T06:01:30;100472.00;;;2.90
73937;BMP180;59249;59.736;30.568;2023-02-28T06:04:01;100459.00;;;2.90
73937;BMP180;59249;59.736;30.568;2023-02-28T06:06:31;100473.00;;;2.90
73937;BMP180;59249;59.736;30.568;2023-02-28T06:09:03;100468.00;;;2.90
73937;BMP180;59249;59.736;30.568;2023-02-28T06:11:33;100484.00;;;2.80
73937;BMP180;59249;59.736;30.568;2023-02-28T06:14:02;100471.00;;;2.80
73937;BMP180;59249;59.736;30.568;2023-02-28T06:16:34;100516.00;;;2.80
73937;BMP180;59249;59.736;30.568;2023-02-28T06:19:04;100493.00;;;2.70
73937;BMP180;59249;59.736;30.568;2023-02-28T06:21:32;100561.00;;;2.70
73937;BMP180;59249;59.736;30.568;2023-02-28T06:24:01;100583.00;;;2.30
73937;BMP180;59249;59.736;30.568;2023-02-28T06:26:31;100613.00;;;2.50
73937;BMP180;59249;59.736;30.568;2023-02-28T06:29:00;100579.00;;;1.80
73937;BMP180;59249;59.736;30.568;2023-02-28T06:31:30;100573.00;;;1.50
73937;BMP180;59249;59.736;30.568;2023-02-28T06:34:00;100570.00;;;1.10
73937;BMP180;59249;59.736;30.568;2023-02-28T06:36:29;100569.00;;;1.20
73937;BMP180;59249;59.736;30.568;2023-02-28T06:38:58;100569.00;;;1.10
73937;BMP180;59249;59.736;30.568;2023-02-28T06:41:27;100564.00;;;1.10
73937;BMP180;59249;59.736;30.568;2023-02-28T06:44:12;100582.00;;;1.20
73937;BMP180;59249;59.736;30.568;2023-02-28T06:46:44;100578.00;;;1.30
73937;BMP180;59249;59.736;30.568;2023-02-28T06:49:15;100594.00;;;1.30
73937;BMP180;59249;59.736;30.568;2023-02-28T06:51:44;100589.00;;;1.40
73937;BMP180;59249;59.736;30.568;2023-02-28T06:54:13;100594.00;;;1.40
73937;BMP180;59249;59.736;30.568;2023-02-28T06:56:42;100598.00;;;1.60
73937;BMP180;59249;59.736;30.568;2023-02-28T06:59:10;100603.00;;;1.70
73937;BMP180;59249;59.736;30.568;2023-02-28T07:01:39;100611.00;;;1.70
73937;BMP180;59249;59.736;30.568;2023-02-28T07:04:08;100619.00;;;1.70
73937;BMP180;59249;59.736;30.568;2023-02-28T07:06:39;100640.00;;;1.80
73937;BMP180;59249;59.736;30.568;2023-02-28T07:09:08;100641.00;;;1.70
73937;BMP180;59249;59.736;30.568;2023-02-28T07:11:37;100647.00;;;1.80
73937;BMP180;59249;59.736;30.568;2023-02-28T07:14:06;100647.00;;;1.70
73937;BMP180;59249;59.736;30.568;2023-02-28T07:16:35;100660.00;;;1.80
73937;BMP180;59249;59.736;30.568;2023-02-28T07:19:04;100658.00;;;1.70
73937;BMP180;59249;59.736;30.568;2023-02-28T07:21:33;100668.00;;;1.70
73937;BMP180;59249;59.736;30.568;2023-02-28T07:24:03;100646.00;;;1.80
73937;BMP180;59249;59.736;30.568;2023-02-28T07:26:32;100679.00;;;1.70
73937;BMP180;59249;59.736;30.568;2023-02-28T07:29:02;100690.00;;;1.70
73937;BMP180;59249;59.736;30.568;2023-02-28T07:31:30;100684.00;;;1.70
73937;BMP180;59249;59.736;30.568;2023-02-28T07:33:59;100658.00;;;1.60
73937;BMP180;59249;59.736;30.568;2023-02-28T07:36:29;100673.00;;;1.70
73937;BMP180;59249;59.736;30.568;2023-02-28T07:38:58;100650.00;;;1.60
73937;BMP180;59249;59.736;30.568;2023-02-28T07:41:28;100661.00;;;1.60
73937;BMP180;59249;59.736;30.568;2023-02-28T07:44:00;100662.00;;;1.50
73937;BMP180;59249;59.736;30.568;2023-02-28T07:46:30;100660.00;;;1.50
73937;BMP180;59249;59.736;30.568;2023-02-28T07:49:03;100663.00;;;1.50
73937;BMP180;59249;59.736;30.568;2023-02-28T07:51:32;100664.00;;;1.50
73937;BMP180;59249;59.736;30.568;2023-02-28T07:54:01;100646.00;;;1.40
73937;BMP180;59249;59.736;30.568;2023-02-28T07:56:31;100647.00;;;1.50
73937;BMP180;59249;59.736;30.568;2023-02-28T07:59:00;100628.00;;;1.40
73937;BMP180;59249;59.736;30.568;2023-02-28T08:01:29;100651.00;;;1.50
73937;BMP180;59249;59.736;30.568;2023-02-28T08:03:59;100645.00;;;1.70
73937;BMP180;59249;59.736;30.568;2023-02-28T08:06:27;100646.00;;;1.70
73937;BMP180;59249;59.736;30.568;2023-02-28T08:08:56;100639.00;;;1.60
73937;BMP180;59249;59.736;30.568;2023-02-28T08:11:25;100666.00;;;1.60
73937;BMP180;59249;59.736;30.568;2023-02-28T08:13:55;100672.00;;;1.60
73937;BMP180;59249;59.736;30.568;2023-02-28T08:16:24;100658.00;;;1.70
73937;BMP180;59249;59.736;30.568;2023-02-28T08:18:53;100662.00;;;1.70
73937;BMP180;59249;59.736;30.568;2023-02-28T08:21:22;100648.00;;;1.70
73937;BMP180;59249;59.736;30.568;2023-02-28T08:23:50;100659.00;;;1.70
73937;BMP180;59249;59.736;30.568;2023-02-28T08:26:20;100650.00;;;1.70
73937;BMP180;59249;59.736;30.568;2023-02-28T08:28:48;100668.00;;;1.60
73937;BMP180;59249;59.736;30.568;2023-02-28T08:31:19;100658.00;;;1.70
73937;BMP180;59249;59.736;30.568;2023-02-28T08:33:47;100655.00;;;1.60
73937;BMP180;59249;59.736;30.568;2023-02-28T08:36:18;100678.00;;;1.60
73937;BMP180;59249;59.736;30.568;2023-02-28T08:38:48;100686.00;;;1.60
73937;BMP180;59249;59.736;30.568;2023-02-28T08:41:17;100678.00;;;1.60
73937;BMP180;59249;59.736;30.568;2023-02-28T08:43:46;100680.00;;;1.60
73937;BMP180;59249;59.736;30.568;2023-02-28T08:46:15;100689.00;;;1.60
73937;BMP180;59249;59.736;30.568;2023-02-28T08:48:45;100682.00;;;1.70
73937;BMP180;59249;59.736;30.568;2023-02-28T08:51:16;100729.00;;;1.70
73937;BMP180;59249;59.736;30.568;2023-02-28T08:53:48;100706.00;;;1.70
73937;BMP180;59249;59.736;30.568;2023-02-28T08:56:18;100721.00;;;1.80
73937;BMP180;59249;59.736;30.568;2023-02-28T08:58:48;100704.00;;;1.80
73937;BMP180;59249;59.736;30.568;2023-02-28T09:01:19;100698.00;;;1.90
73937;BMP180;59249;59.736;30.568;2023-02-28T09:03:51;100700.00;;;2.00
73937;BMP180;59249;59.736;30.568;2023-02-28T09:06:22;100720.00;;;2.10
73937;BMP180;59249;59.736;30.568;2023-02-28T09:08:52;100726.00;;;2.00
73937;BMP180;59249;59.736;30.568;2023-02-28T09:11:22;100737.00;;;1.90
73937;BMP180;59249;59.736;30.568;2023-02-28T09:13:50;100707.00;;;1.80
73937;BMP180;59249;59.736;30.568;2023-02-28T09:16:19;100727.00;;;1.90
73937;BMP180;59249;59.736;30.568;2023-02-28T09:18:48;100715.00;;;1.80
73937;BMP180;59249;59.736;30.568;2023-02-28T09:21:18;100724.00;;;1.70
73937;BMP180;59249;59.736;30.568;2023-02-28T09:23:49;100746.00;;;1.60
73937;BMP180;59249;59.736;30.568;2023-02-28T09:26:20;100719.00;;;1.50
73937;BMP180;59249;59.736;30.568;2023-02-28T09:28:50;100724.00;;;1.50
73937;BMP180;59249;59.736;30.568;2023-02-28T09:31:24;100738.00;;;1.60
73937;BMP180;59249;59.736;30.568;2023-02-28T09:33:56;100757.00;;;1.40
73937;BMP180;59249;59.736;30.568;2023-02-28T09:36:27;100722.00;;;1.40
73937;BMP180;59249;59.736;30.568;2023-02-28T09:39:10;100737.00;;;1.50
73937;BMP180;59249;59.736;30.568;2023-02-28T09:41:42;100731.00;;;1.50
73937;BMP180;59249;59.736;30.568;2023-02-28T09:44:20;100761.00;;;1.60
73937;BMP180;59249;59.736;30.568;2023-02-28T09:46:58;100788.00;;;1.50
73937;BMP180;59249;59.736;30.568;2023-02-28T09:49:35;100733.00;;;1.60
73937;BMP180;59249;59.736;30.568;2023-02-28T09:52:12;100751.00;;;1.60
73937;BMP180;59249;59.736;30.568;2023-02-28T09:54:46;100748.00;;;1.60
73937;BMP180;59249;59.736;30.568;2023-02-28T09:57:19;100734.00;;;1.80
73937;BMP180;59249;59.736;30.568;2023-02-28T10:00:03;100735.00;;;1.80
73937;BMP180;59249;59.736;30.568;2023-02-28T10:02:53;100729.00;;;1.90
73937;BMP180;59249;59.736;30.568;2023-02-28T10:05:33;100723.00;;;2.00
73937;BMP180;59249;59.736;30.568;2023-02-28T10:08:13;100740.00;;;2.00
73937;BMP180;59249;59.736;30.568;2023-02-28T10:10:45;100730.00;;;2.10
73937;BMP180;59249;59.736;30.568;2023-02-28T10:13:22;100749.00;;;2.10
73937;BMP180;59249;59.736;30.568;2023-02-28T10:15:58;100737.00;;;2.20
73937;BMP180;59249;59.736;30.568;2023-02-28T10:18:39;100744.00;;;2.10
73937;BMP180;59249;59.736;30.568;2023-02-28T10:21:19;100766.00;;;2.20
73937;BMP180;59249;59.736;30.568;2023-02-28T10:24:02;100755.00;;;2.30
73937;BMP180;59249;59.736;30.568;2023-02-28T10:26:33;100748.00;;;2.20
73937;BMP180;59249;59.736;30.568;2023-02-28T10:29:01;100745.00;;;2.10
73937;BMP180;59249;59.736;30.568;2023-02-28T10:31:31;100746.00;;;2.20
73937;BMP180;59249;59.736;30.568;2023-02-28T10:34:00;100738.00;;;2.20
73937;BMP180;59249;59.736;30.568;2023-02-28T10:36:30;100745.00;;;2.10
73937;BMP180;59249;59.736;30.568;2023-02-28T10:39:39;100727.00;;;2.20
73937;BMP180;59249;59.736;30.568;2023-02-28T10:42:25;100754.00;;;2.00
73937;BMP180;59249;59.736;30.568;2023-02-28T10:45:09;100744.00;;;2.10
73937;BMP180;59249;59.736;30.568;2023-02-28T10:47:49;100752.00;;;2.20
73937;BMP180;59249;59.736;30.568;2023-02-28T10:50:32;100752.00;;;2.30
73937;BMP180;59249;59.736;30.568;2023-02-28T10:53:17;100751.00;;;2.30
73937;BMP180;59249;59.736;30.568;2023-02-28T10:55:59;100751.00;;;2.40
73937;BMP180;59249;59.736;30.568;2023-02-28T10:58:31;100779.00;;;2.20
73937;BMP180;59249;59.736;30.568;2023-02-28T11:01:13;100765.00;;;2.40
73937;BMP180;59249;59.736;30.568;2023-02-28T11:03:43;100753.00;;;2.40
73937;BMP180;59249;59.736;30.568;2023-02-28T11:06:16;100785.00;;;2.40
73937;BMP180;59249;59.736;30.568;2023-02-28T11:08:50;100759.00;;;2.60
73937;BMP180;59249;59.736;30.568;2023-02-28T11:11:25;100732.00;;;2.70
73937;BMP180;59249;59.736;30.568;2023-02-28T11:13:58;100741.00;;;2.70
73937;BMP180;59249;59.736;30.568;2023-02-28T11:16:34;100734.00;;;2.70
73937;BMP180;59249;59.736;30.568;2023-02-28T11:19:06;100757.00;;;2.60
73937;BMP180;59249;59.736;30.568;2023-02-28T11:21:52;100771.00;;;2.60
73937;BMP180;59249;59.736;30.568;2023-02-28T11:24:26;100745.00;;;2.50
73937;BMP180;59249;59.736;30.568;2023-02-28T11:26:58;100731.00;;;2.60
73937;BMP180;59249;59.736;30.568;2023-02-28T11:29:29;100788.00;;;2.30
73937;BMP180;59249;59.736;30.568;2023-02-28T11:32:13;100756.00;;;2.30
73937;BMP180;59249;59.736;30.568;2023-02-28T11:34:59;100764.00;;;2.30
73937;BMP180;59249;59.736;30.568;2023-02-28T11:37:32;100759.00;;;2.40
73937;BMP180;59249;59.736;30.568;2023-02-28T11:40:02;100749.00;;;2.50
73937;BMP180;59249;59.736;30.568;2023-02-28T11:42:50;100742.00;;;2.30
73937;BMP180;59249;59.736;30.568;2023-02-28T11:45:53;100758.00;;;2.10
73937;BMP180;59249;59.736;30.568;2023-02-28T11:48:38;100735.00;;;1.90
73937;BMP180;59249;59.736;30.568;2023-02-28T11:51:19;100765.00;;;1.90
73937;BMP180;59249;59.736;30.568;2023-02-28T11:54:13;100780.00;;;2.00
73937;BMP180;59249;59.736;30.568;2023-02-28T11:57:20;100784.00;;;1.70
73937;BMP180;59249;59.736;30.568;2023-02-28T12:00:08;100784.00;;;1.80
73937;BMP180;59249;59.736;30.568;2023-02-28T12:03:01;100753.00;;;1.80
73937;BMP180;59249;59.736;30.568;2023-02-28T12:05:42;100767.00;;;1.70
73937;BMP180;59249;59.736;30.568;2023-02-28T12:08:26;100758.00;;;1.80
73937;BMP180;59249;59.736;30.568;2023-02-28T12:11:10;100756.00;;;1.80
73937;BMP180;59249;59.736;30.568;2023-02-28T12:13:55;100742.00;;;2.00
73937;BMP180;59249;59.736;30.568;2023-02-28T12:16:50;100790.00;;;1.80
73937;BMP180;59249;59.736;30.568;2023-02-28T12:19:31;100793.00;;;1.70
73937;BMP180;59249;59.736;30.568;2023-02-28T12:22:20;100744.00;;;1.70
73937;BMP180;59249;59.736;30.568;2023-02-28T12:25:15;100752.00;;;1.60
73937;BMP180;59249;59.736;30.568;2023-02-28T12:27:52;100760.00;;;1.50
73937;BMP180;59249;59.736;30.568;2023-02-28T12:30:23;100775.00;;;1.40
73937;BMP180;59249;59.736;30.568;2023-02-28T12:32:58;100755.00;;;1.40
73937;BMP180;59249;59.736;30.568;2023-02-28T12:35:34;100776.00;;;1.40
73937;BMP180;59249;59.736;30.568;2023-02-28T12:38:10;100776.00;;;1.30
73937;BMP180;59249;59.736;30.568;2023-02-28T12:40:47;100783.00;;;1.30
73937;BMP180;59249;59.736;30.568;2023-02-28T12:43:22;100769.00;;;1.30
73937;BMP180;59249;59.736;30.568;2023-02-28T12:45:58;100758.00;;;1.30
73937;BMP180;59249;59.736;30.568;2023-02-28T12:48:37;100761.00;;;1.30
73937;BMP180;59249;59.736;30.568;2023-02-28T12:51:10;100775.00;;;1.30
73937;BMP180;59249;59.736;30.568;2023-02-28T12:53:53;100763.00;;;1.40
73937;BMP180;59249;59.736;30.568;2023-02-28T12:56:35;100761.00;;;1.40
73937;BMP180;59249;59.736;30.568;2023-02-28T12:59:17;100757.00;;;1.50
73937;BMP180;59249;59.736;30.568;2023-02-28T13:02:00;100784.00;;;1.40
73937;BMP180;59249;59.736;30.568;2023-02-28T13:08:07;100771.00;;;1.60
73937;BMP180;59249;59.736;30.568;2023-02-28T13:10:49;100770.00;;;1.50
73937;BMP180;59249;59.736;30.568;2023-02-28T13:13:23;100769.00;;;1.60
73937;BMP180;59249;59.736;30.568;2023-02-28T13:16:02;100778.00;;;1.60
73937;BMP180;59249;59.736;30.568;2023-02-28T13:18:35;100750.00;;;1.60
73937;BMP180;59249;59.736;30.568;2023-02-28T13:21:10;100772.00;;;1.50
73937;BMP180;59249;59.736;30.568;2023-02-28T13:24:03;100790.00;;;1.40
73937;BMP180;59249;59.736;30.568;2023-02-28T13:27:20;100767.00;;;1.60
73937;BMP180;59249;59.736;30.568;2023-02-28T13:29:59;100777.00;;;1.40
73937;BMP180;59249;59.736;30.568;2023-02-28T13:32:36;100771.00;;;1.40
73937;BMP180;59249;59.736;30.568;2023-02-28T13:41:43;100790.00;;;1.40
73937;BMP180;59249;59.736;30.568;2023-02-28T13:44:16;100787.00;;;1.40
73937;BMP180;59249;59.736;30.568;2023-02-28T13:47:25;100811.00;;;1.40
73937;BMP180;59249;59.736;30.568;2023-02-28T13:50:14;100793.00;;;1.40
73937;BMP180;59249;59.736;30.568;2023-02-28T13:53:04;100788.00;;;1.50
73937;BMP180;59249;59.736;30.568;2023-02-28T13:56:04;100799.00;;;1.60
73937;BMP180;59249;59.736;30.568;2023-02-28T13:58:53;100815.00;;;1.50
73937;BMP180;59249;59.736;30.568;2023-02-28T14:01:43;100787.00;;;1.40
73937;BMP180;59249;59.736;30.568;2023-02-28T14:04:48;100795.00;;;1.50
73937;BMP180;59249;59.736;30.568;2023-02-28T14:07:32;100815.00;;;1.30
73937;BMP180;59249;59.736;30.568;2023-02-28T14:10:23;100831.00;;;1.10
73937;BMP180;59249;59.736;30.568;2023-02-28T14:13:12;100787.00;;;1.10
73937;BMP180;59249;59.736;30.568;2023-02-28T14:16:00;100786.00;;;1.10
73937;BMP180;59249;59.736;30.568;2023-02-28T14:18:34;100801.00;;;0.80
73937;BMP180;59249;59.736;30.568;2023-02-28T14:21:11;100799.00;;;0.80
73937;BMP180;59249;59.736;30.568;2023-02-28T14:24:24;100783.00;;;0.70
73937;BMP180;59249;59.736;30.568;2023-02-28T14:27:26;100768.00;;;0.60
73937;BMP180;59249;59.736;30.568;2023-02-28T14:30:36;100757.00;;;0.60
73937;BMP180;59249;59.736;30.568;2023-02-28T14:33:19;100783.00;;;0.60
73937;BMP180;59249;59.736;30.568;2023-02-28T14:36:03;100790.00;;;0.50
73937;BMP180;59249;59.736;30.568;2023-02-28T14:38:43;100823.00;;;0.60
73937;BMP180;59249;59.736;30.568;2023-02-28T14:41:20;100753.00;;;0.40
73937;BMP180;59249;59.736;30.568;2023-02-28T14:43:55;100805.00;;;0.40
73937;BMP180;59249;59.736;30.568;2023-02-28T14:46:33;100794.00;;;0.40
73937;BMP180;59249;59.736;30.568;2023-02-28T14:49:05;100787.00;;;0.40
73937;BMP180;59249;59.736;30.568;2023-02-28T14:51:35;100791.00;;;0.30
73937;BMP180;59249;59.736;30.568;2023-02-28T14:54:04;100786.00;;;0.20
73937;BMP180;59249;59.736;30.568;2023-02-28T14:56:35;100812.00;;;0.20
73937;BMP180;59249;59.736;30.568;2023-02-28T14:59:17;100799.00;;;0.20
73937;BMP180;59249;59.736;30.568;2023-02-28T15:02:17;100806.00;;;0.20
73937;BMP180;59249;59.736;30.568;2023-02-28T15:04:55;100792.00;;;0.30